createdAt,value
2018-10-11T00:00:52.977Z,24.02
2018-10-11T00:03:43.158Z,21.08
2018-10-11T00:06:31.272Z,21.62
2018-10-11T00:09:18.708Z,26.08
2018-10-11T00:12:08.275Z,24.95
2018-10-11T00:14:56.697Z,28.17
2018-10-11T00:17:47.992Z,26.50
2018-10-11T00:20:42.986Z,22.98
2018-10-11T00:23:31.043Z,25.10
2018-10-11T00:26:18.866Z,27.10
2018-10-11T00:29:23.463Z,33.60
2018-10-11T00:32:12.078Z,25.73
2018-10-11T00:35:02.035Z,26.23
2018-10-11T00:37:52.145Z,25.67
2018-10-11T00:40:43.274Z,25.77
2018-10-11T00:43:30.972Z,24.75
2018-10-11T00:46:19.513Z,23.95
2018-10-11T00:49:07.771Z,26.37
2018-10-11T00:51:58.290Z,26.65
2018-10-11T00:54:46.712Z,24.55
2018-10-11T00:57:35.158Z,25.02
2018-10-11T01:00:25.176Z,24.15
2018-10-11T01:03:12.829Z,25.40
2018-10-11T01:06:00.450Z,26.33
2018-10-11T01:11:55.475Z,26.17
2018-10-11T01:14:43.902Z,24.30
2018-10-11T01:17:32.309Z,24.47
2018-10-11T01:23:26.757Z,22.17
2018-10-11T01:26:29.189Z,28.52
2018-10-11T01:29:16.311Z,26.80
2018-10-11T01:32:06.657Z,26.33
2018-10-11T01:34:54.837Z,25.70
2018-10-11T01:37:42.856Z,26.67
2018-10-11T01:40:30.193Z,25.15
2018-10-11T01:43:18.725Z,23.80
2018-10-11T01:46:06.670Z,27.23
2018-10-11T01:48:56.110Z,25.48
2018-10-11T01:54:53.695Z,24.80
2018-10-11T01:57:41.814Z,25.12
2018-10-11T02:00:34.064Z,26.52
2018-10-11T02:03:22.054Z,22.98
2018-10-11T02:06:10.089Z,26.35
2018-10-11T02:08:58.074Z,25.75
2018-10-11T02:11:45.548Z,23.02
2018-10-11T02:14:36.576Z,26.45
2018-10-11T02:17:25.945Z,25.55
2018-10-11T02:20:14.513Z,23.73
2018-10-11T02:23:01.820Z,23.42
2018-10-11T02:25:51.239Z,24.83
2018-10-11T02:28:39.342Z,25.33
2018-10-11T02:31:28.204Z,23.90
2018-10-11T02:40:31.461Z,23.33
2018-10-11T02:43:21.085Z,26.40
2018-10-11T02:46:10.565Z,24.70
2018-10-11T02:49:10.616Z,23.67
2018-10-11T02:52:03.861Z,24.27
2018-10-11T02:54:49.102Z,27.30
2018-10-11T02:57:49.729Z,25.90
2018-10-11T03:00:38.888Z,27.70
2018-10-11T03:03:33.771Z,28.73
2018-10-11T03:06:21.190Z,24.05
2018-10-11T03:09:11.172Z,34.15
2018-10-11T03:11:58.778Z,25.35
2018-10-11T03:14:48.506Z,26.92
2018-10-11T03:17:35.671Z,30.65
2018-10-11T03:23:29.801Z,28.08
2018-10-11T03:32:29.725Z,29.75
2018-10-11T03:35:17.756Z,26.85
2018-10-11T03:38:04.916Z,24.42
2018-10-11T03:40:52.077Z,27.27
2018-10-11T03:43:40.679Z,27.02
2018-10-11T03:46:29.231Z,22.98
2018-10-11T03:49:16.576Z,27.80
2018-10-11T03:52:05.772Z,25.80
2018-10-11T03:54:54.301Z,27.17
2018-10-11T03:57:49.380Z,28.98
2018-10-11T04:00:36.536Z,28.33
2018-10-11T04:03:26.688Z,29.20
2018-10-11T04:06:14.703Z,35.20
2018-10-11T04:09:02.390Z,27.08
2018-10-11T04:11:50.407Z,23.42
2018-10-11T04:14:42.951Z,24.35
2018-10-11T04:17:30.600Z,30.20
2018-10-11T04:20:19.819Z,24.98
2018-10-11T04:23:06.872Z,25.87
2018-10-11T04:25:55.205Z,26.07
2018-10-11T04:28:43.036Z,31.30
2018-10-11T04:31:31.177Z,24.97
2018-10-11T04:34:19.419Z,29.12
2018-10-11T04:37:07.947Z,28.48
2018-10-11T04:39:55.418Z,28.97
2018-10-11T04:42:58.186Z,25.37
2018-10-11T04:45:58.676Z,28.23
2018-10-11T04:48:46.211Z,25.90
2018-10-11T04:51:34.654Z,28.90
2018-10-11T04:54:22.739Z,31.93
2018-10-11T04:57:10.467Z,30.40
2018-10-11T05:00:10.379Z,28.73
2018-10-11T05:02:57.987Z,30.70
2018-10-11T05:05:46.214Z,33.70
2018-10-11T05:08:33.699Z,30.00
2018-10-11T05:11:21.554Z,32.53
2018-10-11T05:14:09.147Z,34.72
2018-10-11T05:16:57.726Z,28.70
2018-10-11T05:19:47.488Z,33.42
2018-10-11T05:22:35.139Z,30.20
2018-10-11T05:25:22.859Z,31.83
2018-10-11T05:28:10.272Z,30.43
2018-10-11T05:31:07.488Z,32.20
2018-10-11T05:33:54.772Z,30.57
2018-10-11T05:36:42.206Z,30.80
2018-10-11T05:39:33.391Z,29.90
2018-10-11T05:42:21.364Z,28.80
2018-10-11T05:45:09.146Z,27.63
2018-10-11T05:47:57.169Z,29.20
2018-10-11T05:50:57.213Z,31.20
2018-10-11T05:53:48.556Z,29.17
2018-10-11T05:56:36.137Z,29.67
2018-10-11T05:59:24.086Z,30.13
2018-10-11T06:02:11.656Z,31.23
2018-10-11T06:05:00.962Z,26.43
2018-10-11T06:07:50.076Z,29.47
2018-10-11T06:13:44.667Z,28.67
2018-10-11T06:16:32.750Z,27.30
2018-10-11T06:19:20.169Z,29.70
2018-10-11T06:22:15.817Z,31.93
2018-10-11T06:25:03.325Z,28.38
2018-10-11T06:27:50.915Z,28.33
2018-10-11T06:30:40.404Z,29.73
2018-10-11T06:33:28.449Z,26.43
2018-10-11T06:39:25.053Z,27.10
2018-10-11T06:42:13.375Z,27.67
2018-10-11T06:45:04.021Z,25.58
2018-10-11T06:47:51.476Z,23.67
2018-10-11T06:50:51.704Z,32.28
2018-10-11T06:53:39.978Z,25.20
2018-10-11T06:59:41.448Z,28.58
2018-10-11T07:02:47.650Z,22.50
2018-10-11T07:05:35.561Z,27.65
2018-10-11T07:08:23.570Z,23.80
2018-10-11T07:14:17.904Z,23.30
2018-10-11T07:20:11.949Z,22.85
2018-10-11T07:22:59.679Z,24.02
2018-10-11T07:25:47.617Z,21.52
2018-10-11T07:28:35.155Z,23.90
2018-10-11T07:31:23.008Z,23.75
2018-10-11T07:34:11.063Z,24.30
2018-10-11T07:36:59.205Z,20.55
2018-10-11T07:39:53.683Z,28.27
2018-10-11T07:42:41.505Z,22.77
2018-10-11T07:45:30.370Z,21.02
2018-10-11T07:48:18.271Z,20.27
2018-10-11T07:51:06.215Z,22.37
2018-10-11T07:54:10.829Z,22.48
2018-10-11T07:56:58.630Z,21.60
2018-10-11T07:59:46.772Z,21.08
2018-10-11T08:02:38.234Z,20.23
2018-10-11T08:05:25.847Z,24.45
2018-10-11T08:08:14.196Z,20.20
2018-10-11T08:11:03.718Z,18.92
2018-10-11T08:13:51.517Z,19.40
2018-10-11T08:16:39.914Z,18.65
2018-10-11T08:19:28.033Z,17.20
2018-10-11T08:22:27.962Z,17.33
2018-10-11T08:25:15.362Z,16.25
2018-10-11T08:28:02.713Z,20.55
2018-10-11T08:31:03.472Z,18.10
2018-10-11T08:33:51.271Z,16.00
2018-10-11T08:36:40.823Z,18.30
2018-10-11T08:39:31.524Z,15.70
2018-10-11T08:42:34.336Z,19.12
2018-10-11T08:45:22.972Z,15.93
2018-10-11T08:48:10.919Z,15.47
2018-10-11T08:50:59.413Z,16.35
2018-10-11T08:56:56.212Z,14.75
2018-10-11T08:59:43.922Z,15.05
2018-10-11T09:02:31.333Z,15.07
2018-10-11T09:05:18.620Z,14.15
2018-10-11T09:08:08.741Z,14.82
2018-10-11T09:10:56.416Z,16.23
2018-10-11T09:13:45.304Z,17.70
2018-10-11T09:16:36.843Z,14.32
2018-10-11T09:19:24.545Z,14.20
2018-10-11T09:22:12.602Z,12.63
2018-10-11T09:25:02.482Z,14.83
2018-10-11T09:30:56.248Z,12.35
2018-10-11T09:33:44.018Z,13.43
2018-10-11T09:36:31.552Z,13.40
2018-10-11T09:39:19.655Z,15.55
2018-10-11T09:42:11.259Z,12.25
2018-10-11T09:44:59.667Z,12.13
2018-10-11T09:47:47.331Z,12.75
2018-10-11T09:53:41.312Z,13.05
2018-10-11T09:56:30.502Z,11.75
2018-10-11T09:59:18.610Z,14.82
2018-10-11T10:02:08.544Z,14.38
2018-10-11T10:04:55.848Z,11.97
2018-10-11T10:07:43.307Z,11.32
2018-10-11T10:10:30.803Z,11.40
2018-10-11T10:13:19.171Z,10.85
2018-10-11T10:16:07.716Z,11.18
2018-10-11T10:18:58.922Z,10.52
2018-10-11T10:21:47.494Z,17.10
2018-10-11T10:24:46.784Z,14.77
2018-10-11T10:27:34.866Z,9.93
2018-10-11T10:30:22.041Z,9.05
2018-10-11T10:33:10.065Z,9.50
2018-10-11T10:36:03.815Z,13.10
2018-10-11T10:38:52.055Z,10.60
2018-10-11T10:41:40.107Z,8.77
2018-10-11T10:44:31.781Z,12.65
2018-10-11T10:50:29.426Z,8.60
2018-10-11T10:56:23.570Z,9.57
2018-10-11T10:59:12.300Z,11.52
2018-10-11T11:14:25.476Z,9.68
2018-10-11T11:17:12.490Z,7.07
2018-10-11T11:20:01.105Z,8.95
2018-10-11T11:22:48.454Z,7.28
2018-10-11T11:25:35.645Z,11.80
2018-10-11T11:28:24.112Z,11.50
2018-10-11T11:31:16.366Z,8.90
2018-10-11T11:34:05.000Z,9.57
2018-10-11T11:36:53.275Z,10.95
2018-10-11T11:39:41.236Z,9.10
2018-10-11T11:42:28.637Z,9.68
2018-10-11T11:45:17.833Z,10.65
2018-10-11T11:48:05.592Z,8.50
2018-10-11T11:54:12.682Z,9.55
2018-10-11T11:57:00.527Z,9.63
2018-10-11T11:59:58.866Z,9.10
2018-10-11T12:06:05.831Z,8.85
2018-10-11T12:08:55.558Z,9.43
2018-10-11T12:11:46.015Z,11.57
2018-10-11T12:14:33.603Z,12.82
2018-10-11T12:17:21.966Z,11.10
2018-10-11T12:20:12.293Z,11.57
2018-10-11T12:23:01.515Z,10.10
2018-10-11T12:25:50.050Z,11.12
2018-10-11T12:28:37.214Z,10.98
2018-10-11T12:31:24.682Z,15.57
2018-10-11T12:34:12.344Z,14.20
2018-10-11T12:36:59.968Z,10.65
2018-10-11T12:46:02.267Z,11.85
2018-10-11T12:48:50.025Z,8.80
2018-10-11T12:51:38.202Z,9.50
2018-10-11T12:54:25.251Z,11.80
2018-10-11T12:57:17.166Z,10.02
2018-10-11T13:00:00.971Z,10.40
2018-10-11T13:05:56.726Z,11.88
2018-10-11T13:08:45.762Z,10.43
2018-10-11T13:11:43.969Z,11.12
2018-10-11T13:17:42.814Z,9.65
2018-10-11T13:20:27.510Z,9.35
2018-10-11T13:23:18.526Z,10.80
2018-10-11T13:26:09.019Z,10.60
2018-10-11T13:28:59.687Z,9.88
2018-10-11T13:31:50.555Z,12.35
2018-10-11T13:34:40.065Z,10.98
2018-10-11T13:37:33.066Z,9.32
2018-10-11T13:40:20.989Z,11.88
2018-10-11T13:43:13.217Z,10.35
2018-10-11T13:46:02.540Z,10.27
2018-10-11T13:48:50.099Z,10.10
2018-10-11T13:51:37.647Z,10.45
2018-10-11T13:54:27.385Z,11.15
2018-10-11T13:57:15.523Z,11.18
2018-10-11T14:00:02.736Z,10.05
2018-10-11T14:02:50.203Z,12.57
2018-10-11T14:05:39.302Z,10.95
2018-10-11T14:08:26.611Z,12.32
2018-10-11T14:11:14.060Z,10.10
2018-10-11T14:14:01.511Z,11.35
2018-10-11T14:16:48.633Z,10.57
2018-10-11T14:19:36.095Z,9.98
2018-10-11T14:22:23.072Z,10.55
2018-10-11T14:25:10.285Z,10.40
2018-10-11T14:27:57.566Z,8.77
2018-10-11T14:30:46.137Z,11.82
2018-10-11T14:33:33.573Z,9.55
2018-10-11T14:36:21.122Z,10.02
2018-10-11T14:39:10.811Z,11.32
2018-10-11T14:41:57.863Z,11.68
2018-10-11T14:44:46.622Z,8.85
2018-10-11T14:47:36.176Z,12.68
2018-10-11T14:50:23.216Z,11.75
2018-10-11T14:53:10.538Z,8.57
2018-10-11T14:55:57.961Z,9.43
2018-10-11T14:58:45.385Z,10.10
2018-10-11T15:01:33.119Z,11.12
2018-10-11T15:04:20.197Z,9.50
2018-10-11T15:07:07.596Z,9.13
2018-10-11T15:09:54.930Z,10.00
2018-10-11T15:12:42.188Z,11.60
2018-10-11T15:15:29.693Z,9.00
2018-10-11T15:18:17.034Z,11.52
2018-10-11T15:21:04.911Z,11.48
2018-10-11T15:23:52.355Z,10.88
2018-10-11T15:26:40.307Z,10.70
2018-10-11T15:29:27.654Z,10.63
2018-10-11T15:32:14.634Z,14.48
2018-10-11T15:35:04.557Z,16.92
2018-10-11T15:37:52.084Z,14.07
2018-10-11T15:40:39.295Z,12.68
2018-10-11T15:46:33.279Z,13.75
2018-10-11T15:49:21.002Z,14.75
2018-10-11T15:52:08.551Z,10.32
2018-10-11T15:54:55.946Z,9.90
2018-10-11T15:57:43.268Z,12.48
2018-10-11T16:03:37.080Z,13.90
2018-10-11T16:06:24.706Z,11.73
2018-10-11T16:12:29.131Z,12.18
2018-10-11T16:15:14.326Z,12.45
2018-10-11T16:18:02.793Z,16.87
2018-10-11T16:23:56.242Z,12.32
2018-10-11T16:29:49.651Z,14.48
2018-10-11T16:32:36.806Z,12.85
2018-10-11T16:35:32.586Z,13.23
2018-10-11T16:38:20.005Z,12.02
2018-10-11T16:41:09.733Z,11.25
2018-10-11T16:43:57.473Z,13.52
2018-10-11T16:46:44.834Z,12.23
2018-10-11T16:49:32.232Z,18.05
2018-10-11T16:55:29.433Z,11.50
2018-10-11T16:58:16.817Z,14.63
2018-10-11T17:01:04.042Z,14.02
2018-10-11T17:03:51.180Z,13.62
2018-10-11T17:06:38.811Z,16.20
2018-10-11T17:09:26.314Z,13.38
2018-10-11T17:15:20.728Z,13.50
2018-10-11T17:18:09.002Z,16.42
2018-10-11T17:20:56.300Z,28.38
2018-10-11T17:23:51.286Z,13.43
2018-10-11T17:26:39.103Z,11.90
2018-10-11T17:32:40.635Z,11.15
2018-10-11T17:35:28.107Z,11.18
2018-10-11T17:38:15.785Z,12.37
2018-10-11T17:44:09.353Z,16.85
2018-10-11T17:46:56.725Z,19.95
2018-10-11T17:49:52.550Z,13.25
2018-10-11T17:52:40.680Z,13.65
2018-10-11T17:55:28.154Z,12.95
2018-10-11T17:58:15.575Z,14.32
2018-10-11T18:07:18.721Z,15.32
2018-10-11T18:10:07.096Z,13.68
2018-10-11T18:12:58.399Z,13.68
2018-10-11T18:15:49.567Z,12.82
2018-10-11T18:18:39.158Z,21.55
2018-10-11T18:21:31.257Z,11.18
2018-10-11T18:24:22.440Z,10.40
2018-10-11T18:27:18.520Z,15.07
2018-10-11T18:30:06.463Z,11.82
2018-10-11T18:32:57.119Z,11.48
2018-10-11T18:35:45.317Z,14.15
2018-10-11T18:38:32.997Z,16.25
2018-10-11T18:44:30.919Z,13.30
2018-10-11T18:50:30.480Z,13.93
2018-10-11T18:53:19.688Z,13.55
2018-10-11T18:56:10.048Z,18.40
2018-10-11T19:02:06.494Z,18.42
2018-10-11T19:04:55.861Z,13.82
2018-10-11T19:07:43.455Z,14.52
2018-10-11T19:10:31.353Z,14.98
2018-10-11T19:13:19.423Z,15.18
2018-10-11T19:19:13.631Z,18.35
2018-10-11T19:22:01.107Z,14.30
2018-10-11T19:24:48.634Z,13.57
2018-10-11T19:30:50.031Z,15.68
2018-10-11T19:33:37.581Z,15.05
2018-10-11T19:36:26.349Z,14.85
2018-10-11T19:39:16.760Z,15.55
2018-10-11T19:45:12.810Z,16.55
2018-10-11T19:48:00.617Z,16.52
2018-10-11T19:50:49.025Z,16.50
2018-10-11T19:53:37.625Z,15.77
2018-10-11T19:56:26.108Z,16.90
2018-10-11T19:59:17.120Z,14.53
2018-10-11T20:02:07.896Z,13.55
2018-10-11T20:04:55.733Z,15.50
2018-10-11T20:07:45.538Z,16.45
2018-10-11T20:10:47.266Z,17.05
2018-10-11T20:13:36.210Z,16.58
2018-10-11T20:16:24.007Z,19.10
2018-10-11T20:19:15.374Z,18.25
2018-10-11T20:22:04.509Z,15.05
2018-10-11T20:24:52.522Z,17.42
2018-10-11T20:27:45.722Z,17.27
2018-10-11T20:30:35.292Z,15.85
2018-10-11T20:33:24.170Z,18.12
2018-10-11T20:36:14.138Z,20.62
2018-10-11T20:39:13.798Z,18.87
2018-10-11T20:42:01.941Z,19.12
2018-10-11T20:44:56.007Z,14.85
2018-10-11T20:50:47.562Z,17.45
2018-10-11T20:53:35.920Z,18.80
2018-10-11T20:56:23.703Z,17.42
2018-10-11T20:59:13.436Z,19.98
2018-10-11T21:02:03.414Z,16.95
2018-10-11T21:04:56.804Z,20.00
2018-10-11T21:07:48.345Z,17.10
2018-10-11T21:10:36.836Z,17.37
2018-10-11T21:13:33.186Z,18.00
2018-10-11T21:16:29.132Z,19.67
2018-10-11T21:19:16.689Z,20.30
2018-10-11T21:22:21.347Z,20.52
2018-10-11T21:25:17.431Z,23.10
2018-10-11T21:31:18.266Z,20.35
2018-10-11T21:34:05.712Z,22.62
2018-10-11T21:36:53.909Z,16.55
2018-10-11T21:39:42.460Z,19.75
2018-10-11T21:42:31.616Z,18.80
2018-10-11T21:45:20.014Z,25.05
2018-10-11T21:48:12.061Z,26.00
2018-10-11T21:54:07.351Z,21.25
2018-10-11T21:56:58.148Z,22.90
2018-10-11T21:59:45.622Z,20.52
2018-10-11T22:02:33.052Z,19.97
2018-10-11T22:05:27.911Z,19.73
2018-10-11T22:08:16.117Z,20.48
2018-10-11T22:11:03.232Z,22.48
2018-10-11T22:13:57.524Z,21.47
2018-10-11T22:19:52.621Z,21.57
2018-10-11T22:22:40.344Z,26.33
2018-10-11T22:25:39.261Z,20.55
2018-10-11T22:28:26.979Z,22.25
2018-10-11T22:34:33.472Z,22.60
2018-10-11T22:37:36.510Z,25.63
2018-10-11T22:40:26.245Z,25.80
2018-10-11T22:43:16.148Z,21.35
2018-10-11T22:46:05.697Z,25.58
2018-10-11T22:48:58.775Z,23.53
2018-10-11T22:51:46.645Z,20.80
2018-10-11T22:54:43.239Z,20.58
2018-10-11T22:57:32.629Z,22.62
2018-10-11T23:00:27.130Z,21.80
2018-10-11T23:03:16.396Z,24.17
2018-10-11T23:06:06.579Z,18.83
2018-10-11T23:12:04.392Z,20.30
2018-10-11T23:15:02.882Z,21.83
2018-10-11T23:17:56.060Z,21.87
2018-10-11T23:20:53.498Z,20.53
2018-10-11T23:23:57.058Z,20.53
2018-10-11T23:26:47.544Z,24.63
2018-10-11T23:29:36.810Z,23.37
2018-10-11T23:32:24.576Z,28.37
2018-10-11T23:35:13.935Z,24.43
2018-10-11T23:38:01.126Z,24.90
2018-10-11T23:40:49.430Z,25.10
2018-10-11T23:43:37.769Z,26.70
2018-10-11T23:46:34.816Z,26.97
2018-10-11T23:49:27.562Z,24.20
2018-10-11T23:52:16.096Z,22.58
